createdAt,value
2022-08-12T00:00:00.602Z,17.70
2022-08-12T00:03:22.069Z,17.61
2022-08-12T00:06:44.128Z,17.46
2022-08-12T00:10:05.212Z,17.36
2022-08-12T00:13:25.988Z,17.40
2022-08-12T00:16:47.752Z,17.51
2022-08-12T00:20:09.586Z,17.59
2022-08-12T00:23:31.586Z,17.63
2022-08-12T00:26:52.730Z,17.67
2022-08-12T00:30:13.650Z,17.61
2022-08-12T00:33:51.753Z,17.54
2022-08-12T00:37:14.708Z,17.54
2022-08-12T00:40:35.429Z,17.66
2022-08-12T00:43:38.374Z,17.27
2022-08-12T00:46:58.794Z,17.16
2022-08-12T00:50:01.783Z,17.16
2022-08-12T00:53:06.224Z,17.14
2022-08-12T00:56:08.464Z,16.96
2022-08-12T00:59:11.818Z,16.92
2022-08-12T01:02:22.729Z,16.88
2022-08-12T01:05:45.104Z,16.87
2022-08-12T01:09:05.797Z,16.92
2022-08-12T01:12:10.371Z,16.87
2022-08-12T01:15:13.876Z,16.78
2022-08-12T01:18:17.774Z,16.75
2022-08-12T01:21:22.831Z,16.70
2022-08-12T01:24:54.496Z,16.57
2022-08-12T01:27:57.780Z,16.53
2022-08-12T01:31:04.587Z,16.51
2022-08-12T01:34:36.625Z,16.54
2022-08-12T01:37:41.377Z,16.36
2022-08-12T01:40:47.122Z,16.30
2022-08-12T01:43:50.846Z,16.13
2022-08-12T01:47:19.171Z,15.97
2022-08-12T01:50:26.895Z,15.80
2022-08-12T01:53:57.463Z,15.75
2022-08-12T01:57:11.077Z,15.88
2022-08-12T02:00:17.268Z,15.69
2022-08-12T02:04:04.476Z,15.59
2022-08-12T02:08:04.651Z,15.53
2022-08-12T02:11:18.666Z,15.33
2022-08-12T02:14:55.469Z,15.15
2022-08-12T02:18:09.462Z,15.14
2022-08-12T02:21:32.789Z,15.16
2022-08-12T02:24:38.125Z,15.10
2022-08-12T02:27:42.970Z,14.99
2022-08-12T02:30:45.306Z,14.98
2022-08-12T02:33:47.700Z,14.98
2022-08-12T02:36:56.041Z,14.77
2022-08-12T02:40:02.440Z,14.78
2022-08-12T02:43:12.072Z,14.78
2022-08-12T02:46:19.649Z,14.80
2022-08-12T02:49:31.432Z,14.83
2022-08-12T02:52:34.336Z,14.70
2022-08-12T02:55:36.652Z,14.56
2022-08-12T02:58:41.255Z,14.68
2022-08-12T03:02:04.629Z,14.82
2022-08-12T03:05:07.239Z,15.01
2022-08-12T03:08:19.077Z,14.88
2022-08-12T03:11:49.838Z,14.69
2022-08-12T03:14:54.243Z,14.72
2022-08-12T03:18:23.534Z,14.64
2022-08-12T03:21:54.613Z,14.65
2022-08-12T03:24:51.770Z,14.76
2022-08-12T03:27:56.097Z,14.84
2022-08-12T03:31:02.193Z,14.75
2022-08-12T03:34:12.349Z,14.92
2022-08-12T03:37:16.992Z,14.97
2022-08-12T03:40:37.815Z,14.85
2022-08-12T03:44:20.486Z,14.93
2022-08-12T03:47:49.621Z,14.92
2022-08-12T03:51:11.102Z,15.02
2022-08-12T03:54:31.912Z,15.12
2022-08-12T03:57:52.667Z,15.08
2022-08-12T04:00:55.048Z,15.18
2022-08-12T04:03:58.093Z,15.30
2022-08-12T04:07:02.810Z,15.20
2022-08-12T04:10:05.958Z,15.26
2022-08-12T04:13:18.634Z,15.41
2022-08-12T04:16:21.014Z,16.41
2022-08-12T04:19:25.214Z,16.81
2022-08-12T04:22:30.514Z,16.94
2022-08-12T04:25:34.061Z,17.13
2022-08-12T04:28:36.466Z,17.66
2022-08-12T04:31:43.638Z,17.70
2022-08-12T04:34:46.192Z,17.31
2022-08-12T04:37:58.826Z,17.08
2022-08-12T04:41:04.317Z,16.74
2022-08-12T04:44:07.681Z,16.75
2022-08-12T04:47:14.453Z,17.15
2022-08-12T04:50:34.085Z,16.80
2022-08-12T04:53:37.876Z,17.11
2022-08-12T04:56:40.595Z,17.69
2022-08-12T04:59:46.978Z,17.90
2022-08-12T05:02:51.132Z,18.60
2022-08-12T05:05:56.768Z,19.26
2022-08-12T05:09:00.719Z,19.56
2022-08-12T05:12:03.588Z,20.09
2022-08-12T05:15:19.418Z,20.23
2022-08-12T05:18:30.304Z,20.59
2022-08-12T05:21:33.248Z,20.72
2022-08-12T05:24:35.443Z,20.75
2022-08-12T05:27:39.785Z,20.42
2022-08-12T05:30:58.510Z,19.46
2022-08-12T05:34:00.766Z,19.37
2022-08-12T05:37:03.186Z,19.21
2022-08-12T05:40:10.872Z,19.09
2022-08-12T05:43:13.535Z,18.96
2022-08-12T05:46:16.260Z,19.11
2022-08-12T05:49:18.532Z,18.74
2022-08-12T05:52:21.061Z,18.69
2022-08-12T05:55:26.945Z,18.86
2022-08-12T05:58:32.775Z,18.86
2022-08-12T06:02:09.598Z,18.97
2022-08-12T06:05:00.346Z,19.30
2022-08-12T06:08:07.398Z,19.63
2022-08-12T06:11:09.581Z,19.31
2022-08-12T06:14:12.338Z,19.76
2022-08-12T06:17:14.589Z,19.88
2022-08-12T06:20:25.931Z,19.56
2022-08-12T06:23:41.893Z,19.73
2022-08-12T06:26:45.035Z,19.97
2022-08-12T06:30:10.104Z,20.29
2022-08-12T06:33:22.145Z,19.97
2022-08-12T06:36:30.079Z,20.06
2022-08-12T06:39:35.872Z,20.51
2022-08-12T06:42:52.368Z,20.66
2022-08-12T06:45:54.684Z,20.32
2022-08-12T06:48:59.356Z,20.62
2022-08-12T06:52:02.169Z,20.53
2022-08-12T06:55:04.747Z,20.95
2022-08-12T06:58:10.595Z,20.90
2022-08-12T07:01:13.141Z,21.28
2022-08-12T07:04:35.826Z,21.64
2022-08-12T07:07:38.999Z,21.66
2022-08-12T07:10:59.302Z,22.21
2022-08-12T07:14:13.114Z,21.95
2022-08-12T07:17:15.749Z,22.06
2022-08-12T07:20:49.847Z,22.42
2022-08-12T07:23:41.722Z,22.54
2022-08-12T07:26:44.799Z,22.26
2022-08-12T07:30:03.627Z,22.75
2022-08-12T07:33:09.700Z,23.34
2022-08-12T07:36:14.630Z,23.08
2022-08-12T07:39:17.197Z,23.03
2022-08-12T07:42:19.478Z,23.28
2022-08-12T07:45:22.199Z,23.43
2022-08-12T07:48:25.235Z,23.74
2022-08-12T07:51:28.942Z,23.97
2022-08-12T07:54:31.193Z,23.84
2022-08-12T07:57:33.726Z,23.28
2022-08-12T08:00:39.942Z,23.66
2022-08-12T08:04:02.458Z,23.37
2022-08-12T08:07:09.477Z,23.55
2022-08-12T08:10:13.931Z,23.51
2022-08-12T08:13:16.590Z,23.94
2022-08-12T08:16:20.494Z,23.95
2022-08-12T08:19:24.069Z,23.86
2022-08-12T08:22:40.627Z,24.48
2022-08-12T08:25:45.469Z,24.40
2022-08-12T08:28:48.081Z,24.46
2022-08-12T08:31:54.510Z,24.04
2022-08-12T08:34:56.792Z,24.11
2022-08-12T08:38:32.011Z,23.77
2022-08-12T08:42:19.113Z,24.16
2022-08-12T08:45:18.104Z,24.45
2022-08-12T08:48:22.186Z,24.45
2022-08-12T08:51:26.040Z,24.84
2022-08-12T08:54:33.488Z,24.63
2022-08-12T08:57:42.958Z,24.72
2022-08-12T09:00:49.831Z,24.99
2022-08-12T09:05:07.153Z,25.45
2022-08-12T09:07:51.559Z,25.37
2022-08-12T09:10:44.973Z,25.49
2022-08-12T09:14:10.420Z,25.70
2022-08-12T09:17:10.589Z,25.51
2022-08-12T09:20:16.398Z,25.26
2022-08-12T09:23:59.488Z,25.61
2022-08-12T09:26:46.488Z,25.32
2022-08-12T09:30:12.040Z,25.54
2022-08-12T09:33:18.806Z,25.67
2022-08-12T09:36:58.284Z,25.64
2022-08-12T09:40:06.244Z,26.17
2022-08-12T09:43:53.539Z,26.26
2022-08-12T09:46:56.666Z,25.63
2022-08-12T09:49:59.194Z,25.13
2022-08-12T09:53:15.432Z,25.57
2022-08-12T09:57:00.738Z,25.52
2022-08-12T10:00:12.783Z,25.62
2022-08-12T10:03:32.567Z,25.80
2022-08-12T10:06:36.532Z,26.02
2022-08-12T10:09:57.278Z,26.32
2022-08-12T10:13:35.969Z,26.48
2022-08-12T10:16:44.481Z,26.29
2022-08-12T10:19:51.930Z,26.59
2022-08-12T10:22:59.226Z,26.58
2022-08-12T10:26:37.359Z,26.13
2022-08-12T10:30:40.770Z,26.36
2022-08-12T10:33:18.874Z,26.30
2022-08-12T10:36:36.393Z,26.16
2022-08-12T10:40:01.480Z,26.00
2022-08-12T10:43:24.074Z,25.56
2022-08-12T10:46:31.281Z,25.62
2022-08-12T10:50:04.572Z,25.34
2022-08-12T10:52:56.954Z,25.38
2022-08-12T10:55:59.935Z,24.49
2022-08-12T10:59:11.075Z,24.78
2022-08-12T11:04:24.119Z,24.75
2022-08-12T11:07:07.997Z,25.01
2022-08-12T11:09:01.555Z,25.72
2022-08-12T11:12:54.986Z,25.69
2022-08-12T11:16:03.342Z,25.63
2022-08-12T11:18:56.872Z,25.53
2022-08-12T11:22:03.140Z,25.52
2022-08-12T11:25:10.534Z,25.53
2022-08-12T11:28:15.006Z,25.02
2022-08-12T11:31:18.299Z,25.05
2022-08-12T11:34:51.545Z,25.00
2022-08-12T11:37:58.168Z,25.21
2022-08-12T11:41:05.657Z,25.82
2022-08-12T11:44:36.250Z,25.72
2022-08-12T11:47:30.119Z,25.91
2022-08-12T11:50:33.169Z,25.62
2022-08-12T11:53:59.104Z,25.49
2022-08-12T11:57:22.816Z,25.55
2022-08-12T12:03:47.673Z,26.11
2022-08-12T12:06:53.010Z,26.82
2022-08-12T12:09:55.735Z,27.20
2022-08-12T12:12:58.101Z,27.27
2022-08-12T12:16:00.442Z,27.81
2022-08-12T12:19:02.747Z,28.23
2022-08-12T12:22:04.978Z,27.79
2022-08-12T12:25:13.316Z,27.09
2022-08-12T12:28:37.131Z,26.86
2022-08-12T12:32:09.771Z,26.61
2022-08-12T12:35:18.248Z,26.68
2022-08-12T12:38:25.417Z,26.61
2022-08-12T12:42:41.719Z,26.52
2022-08-12T12:44:53.678Z,26.33
2022-08-12T12:48:00.438Z,26.70
2022-08-12T12:51:48.550Z,26.68
2022-08-12T12:54:52.816Z,27.03
2022-08-12T12:58:00.194Z,27.38
2022-08-12T13:01:04.879Z,27.24
2022-08-12T13:04:27.153Z,27.17
2022-08-12T13:07:54.762Z,27.59
2022-08-12T13:10:53.381Z,27.59
2022-08-12T13:14:07.357Z,27.31
2022-08-12T13:17:16.650Z,27.38
2022-08-12T13:20:37.260Z,27.36
2022-08-12T13:23:45.954Z,27.68
2022-08-12T13:26:50.229Z,27.64
2022-08-12T13:29:54.491Z,27.97
2022-08-12T13:32:58.900Z,28.08
2022-08-12T13:36:04.733Z,28.04
2022-08-12T13:39:10.202Z,28.05
2022-08-12T13:42:14.837Z,27.64
2022-08-12T13:45:17.182Z,27.85
2022-08-12T13:48:20.059Z,28.02
2022-08-12T13:51:24.586Z,27.58
2022-08-12T13:54:27.004Z,27.61
2022-08-12T13:57:44.501Z,27.43
2022-08-12T14:00:51.944Z,27.83
2022-08-12T14:03:55.529Z,28.39
2022-08-12T14:06:58.327Z,28.62
2022-08-12T14:10:20.884Z,28.59
2022-08-12T14:14:04.588Z,28.39
2022-08-12T14:16:51.303Z,28.40
2022-08-12T14:20:13.001Z,28.18
2022-08-12T14:24:11.055Z,28.41
2022-08-12T14:26:41.603Z,28.41
2022-08-12T14:30:06.644Z,28.44
2022-08-12T14:33:10.929Z,28.63
2022-08-12T14:36:15.575Z,28.82
2022-08-12T14:39:18.058Z,28.40
2022-08-12T14:42:20.569Z,28.34
2022-08-12T14:45:24.683Z,28.57
2022-08-12T14:48:51.804Z,28.74
2022-08-12T14:52:44.124Z,28.56
2022-08-12T14:59:00.081Z,28.54
2022-08-12T15:02:21.604Z,28.65
2022-08-12T15:06:04.882Z,28.71
2022-08-12T15:08:46.268Z,28.88
2022-08-12T15:11:55.332Z,27.79
2022-08-12T15:14:59.885Z,27.30
2022-08-12T15:18:02.617Z,27.25
2022-08-12T15:21:11.476Z,27.01
2022-08-12T15:24:13.947Z,26.81
2022-08-12T15:27:22.389Z,26.57
2022-08-12T15:30:41.828Z,26.40
2022-08-12T15:33:46.124Z,26.34
2022-08-12T15:36:54.596Z,26.31
2022-08-12T15:40:01.125Z,26.30
2022-08-12T15:43:04.898Z,26.22
2022-08-12T15:46:15.053Z,26.29
2022-08-12T15:49:19.189Z,26.36
2022-08-12T15:52:27.362Z,26.35
2022-08-12T15:55:33.688Z,26.33
2022-08-12T15:58:38.347Z,26.41
2022-08-12T16:01:41.546Z,26.74
2022-08-12T16:04:44.089Z,26.61
2022-08-12T16:07:50.851Z,26.53
2022-08-12T16:10:53.291Z,26.71
2022-08-12T16:13:55.578Z,26.78
2022-08-12T16:16:57.782Z,26.69
2022-08-12T16:20:03.566Z,26.73
2022-08-12T16:23:26.571Z,26.65
2022-08-12T16:26:35.862Z,26.64
2022-08-12T16:29:53.240Z,26.61
2022-08-12T16:32:58.697Z,26.59
2022-08-12T16:36:01.018Z,26.65
2022-08-12T16:39:04.238Z,26.55
2022-08-12T16:42:06.927Z,26.51
2022-08-12T16:45:13.930Z,26.35
2022-08-12T16:48:33.656Z,26.35
2022-08-12T16:51:37.562Z,26.29
2022-08-12T16:54:44.221Z,26.18
2022-08-12T16:57:49.375Z,26.10
2022-08-12T17:00:51.994Z,26.09
2022-08-12T17:04:08.159Z,26.05
2022-08-12T17:07:17.022Z,25.97
2022-08-12T17:10:36.491Z,25.83
2022-08-12T17:13:42.857Z,25.71
2022-08-12T17:16:56.964Z,25.63
2022-08-12T17:20:36.348Z,25.52
2022-08-12T17:23:48.025Z,25.48
2022-08-12T17:26:56.366Z,25.28
2022-08-12T17:30:02.698Z,25.10
2022-08-12T17:33:07.534Z,25.10
2022-08-12T17:36:10.730Z,24.98
2022-08-12T17:39:13.122Z,24.93
2022-08-12T17:42:32.595Z,24.91
2022-08-12T17:45:37.946Z,24.87
2022-08-12T17:48:55.081Z,24.87
2022-08-12T17:52:02.827Z,24.71
2022-08-12T17:55:07.192Z,24.47
2022-08-12T17:58:37.835Z,24.20
2022-08-12T18:01:45.635Z,23.89
2022-08-12T18:05:09.610Z,23.63
2022-08-12T18:08:12.204Z,23.46
2022-08-12T18:12:04.961Z,23.33
2022-08-12T18:15:00.558Z,23.18
2022-08-12T18:18:04.138Z,22.94
2022-08-12T18:21:09.778Z,22.74
2022-08-12T18:24:22.010Z,22.65
2022-08-12T18:27:30.585Z,22.58
2022-08-12T18:30:52.552Z,22.38
2022-08-12T18:34:00.665Z,22.42
2022-08-12T18:37:12.538Z,22.25
2022-08-12T18:40:46.643Z,22.11
2022-08-12T18:44:00.304Z,21.93
2022-08-12T18:47:06.503Z,21.80
2022-08-12T18:50:12.964Z,21.65
2022-08-12T18:54:06.480Z,21.58
2022-08-12T18:56:39.647Z,21.51
2022-08-12T19:00:01.993Z,21.38
2022-08-12T19:03:38.604Z,21.33
2022-08-12T19:06:38.295Z,21.31
2022-08-12T19:09:57.984Z,21.18
2022-08-12T19:13:24.790Z,21.20
2022-08-12T19:16:27.934Z,21.33
2022-08-12T19:19:37.505Z,21.19
2022-08-12T19:22:59.794Z,20.93
2022-08-12T19:26:12.441Z,20.70
2022-08-12T19:29:18.266Z,20.62
2022-08-12T19:32:27.327Z,20.51
2022-08-12T19:36:07.094Z,20.40
2022-08-12T19:38:56.484Z,20.50
2022-08-12T19:42:01.249Z,20.45
2022-08-12T19:45:05.185Z,20.16
2022-08-12T19:48:12.547Z,20.27
2022-08-12T19:51:33.167Z,20.11
2022-08-12T19:54:35.926Z,20.12
2022-08-12T19:57:42.414Z,20.11
2022-08-12T20:00:48.998Z,19.99
2022-08-12T20:03:59.076Z,20.04
2022-08-12T20:07:02.214Z,19.73
2022-08-12T20:10:09.355Z,20.06
2022-08-12T20:13:18.980Z,20.03
2022-08-12T20:16:57.215Z,19.90
2022-08-12T20:20:17.305Z,19.93
2022-08-12T20:23:37.358Z,19.88
2022-08-12T20:26:53.910Z,19.84
2022-08-12T20:29:56.153Z,19.74
2022-08-12T20:33:00.495Z,19.54
2022-08-12T20:36:13.042Z,19.51
2022-08-12T20:39:52.328Z,19.44
2022-08-12T20:42:50.678Z,19.54
2022-08-12T20:45:57.387Z,19.53
2022-08-12T20:49:17.265Z,19.52
2022-08-12T20:52:20.066Z,19.89
2022-08-12T20:55:42.091Z,20.10
2022-08-12T20:58:46.189Z,19.73
2022-08-12T21:01:49.255Z,19.60
2022-08-12T21:05:19.837Z,19.61
2022-08-12T21:08:27.334Z,20.05
2022-08-12T21:11:30.384Z,20.13
2022-08-12T21:14:39.801Z,20.06
2022-08-12T21:18:11.199Z,20.10
2022-08-12T21:21:40.467Z,20.62
2022-08-12T21:24:50.651Z,20.80
2022-08-12T21:27:58.851Z,20.70
2022-08-12T21:32:36.021Z,20.32
2022-08-12T21:34:29.280Z,20.33
2022-08-12T21:37:37.231Z,20.46
2022-08-12T21:40:51.784Z,20.59
2022-08-12T21:44:01.702Z,20.48
2022-08-12T21:47:19.771Z,20.32
2022-08-12T21:50:29.052Z,20.18
2022-08-12T21:54:06.036Z,19.97
2022-08-12T21:56:56.800Z,19.82
2022-08-12T21:59:59.158Z,19.73
2022-08-12T22:04:02.961Z,19.69
2022-08-12T22:06:53.368Z,19.61
2022-08-12T22:09:57.259Z,19.51
2022-08-12T22:13:01.080Z,19.48
2022-08-12T22:16:03.750Z,19.10
2022-08-12T22:19:06.449Z,19.08
2022-08-12T22:22:08.768Z,19.06
2022-08-12T22:25:16.757Z,18.87
2022-08-12T22:28:41.168Z,19.08
2022-08-12T22:31:43.417Z,19.36
2022-08-12T22:34:46.207Z,19.70
2022-08-12T22:37:48.697Z,19.83
2022-08-12T22:41:01.044Z,19.98
2022-08-12T22:44:23.584Z,19.56
2022-08-12T22:47:53.848Z,19.59
2022-08-12T22:50:59.570Z,19.58
2022-08-12T22:54:01.966Z,19.69
2022-08-12T22:57:05.676Z,19.73
2022-08-12T23:00:24.464Z,19.62
2022-08-12T23:03:49.620Z,19.76
2022-08-12T23:06:55.177Z,19.78
2022-08-12T23:09:57.724Z,19.64
2022-08-12T23:13:18.517Z,19.63
2022-08-12T23:16:29.410Z,19.65
2022-08-12T23:19:38.375Z,19.65
2022-08-12T23:22:56.122Z,19.59
2022-08-12T23:26:05.541Z,19.57
2022-08-12T23:29:29.922Z,19.63
2022-08-12T23:32:37.860Z,19.68
2022-08-12T23:35:53.614Z,19.70
2022-08-12T23:39:03.954Z,19.75
2022-08-12T23:42:17.919Z,19.68
2022-08-12T23:45:31.944Z,19.62
2022-08-12T23:48:37.769Z,19.56
2022-08-12T23:51:40.236Z,19.57
2022-08-12T23:54:46.343Z,19.53
2022-08-12T23:58:21.701Z,19.47
